createdAt,value
2022-08-01T00:01:35.849Z,30.25
2022-08-01T00:04:10.080Z,27.52
2022-08-01T00:06:46.227Z,23.08
2022-08-01T00:09:24.252Z,28.58
2022-08-01T00:12:00.076Z,29.23
2022-08-01T00:14:35.735Z,29.05
2022-08-01T00:17:09.409Z,25.13
2022-08-01T00:19:44.516Z,25.60
2022-08-01T00:22:20.626Z,25.83
2022-08-01T00:24:54.551Z,22.77
2022-08-01T00:27:28.240Z,24.70
2022-08-01T00:30:12.382Z,28.75
2022-08-01T00:32:49.179Z,30.23
2022-08-01T00:35:23.140Z,28.42
2022-08-01T00:38:18.528Z,30.88
2022-08-01T00:40:52.687Z,31.77
2022-08-01T00:43:26.439Z,27.95
2022-08-01T00:46:00.403Z,30.98
2022-08-01T00:48:34.762Z,31.80
2022-08-01T00:51:17.482Z,30.67
2022-08-01T00:53:53.547Z,29.05
2022-08-01T00:56:30.685Z,30.08
2022-08-01T00:59:04.552Z,35.55
2022-08-01T01:01:39.574Z,28.25
2022-08-01T01:04:13.531Z,30.17
2022-08-01T01:06:56.270Z,33.67
2022-08-01T01:09:43.431Z,35.85
2022-08-01T01:12:25.991Z,37.60
2022-08-01T01:15:06.695Z,36.15
2022-08-01T01:17:51.010Z,38.72
2022-08-01T01:20:29.693Z,35.47
2022-08-01T01:23:37.554Z,42.40
2022-08-01T01:26:27.129Z,37.20
2022-08-01T01:29:18.141Z,36.38
2022-08-01T01:31:57.021Z,33.53
2022-08-01T01:34:33.176Z,36.10
2022-08-01T01:37:09.581Z,35.85
2022-08-01T01:39:45.491Z,37.85
2022-08-01T01:42:30.569Z,32.17
2022-08-01T01:45:08.359Z,34.80
2022-08-01T01:47:43.555Z,29.75
2022-08-01T01:50:18.773Z,30.52
2022-08-01T01:52:54.192Z,32.47
2022-08-01T01:55:28.919Z,28.92
2022-08-01T01:58:03.795Z,29.08
2022-08-01T02:00:54.510Z,31.40
2022-08-01T02:03:29.753Z,27.50
2022-08-01T02:06:03.992Z,25.92
2022-08-01T02:08:40.353Z,24.27
2022-08-01T02:11:31.731Z,26.65
2022-08-01T02:14:07.584Z,23.70
2022-08-01T02:16:46.863Z,22.60
2022-08-01T02:19:22.909Z,22.73
2022-08-01T02:22:03.350Z,22.58
2022-08-01T02:24:45.656Z,26.85
2022-08-01T02:27:22.024Z,21.60
2022-08-01T02:30:02.172Z,26.50
2022-08-01T02:32:44.292Z,23.95
2022-08-01T02:35:25.073Z,21.63
2022-08-01T02:38:00.119Z,26.17
2022-08-01T02:40:37.298Z,23.80
2022-08-01T02:43:13.129Z,24.30
2022-08-01T02:45:50.612Z,21.77
2022-08-01T02:48:28.386Z,20.60
2022-08-01T02:51:05.414Z,17.90
2022-08-01T02:53:44.655Z,22.95
2022-08-01T02:56:20.356Z,24.48
2022-08-01T02:58:54.890Z,15.88
2022-08-01T03:01:30.543Z,17.88
2022-08-01T03:04:09.189Z,20.73
2022-08-01T03:06:45.014Z,18.98
2022-08-01T03:09:19.866Z,17.38
2022-08-01T03:11:54.909Z,16.52
2022-08-01T03:14:32.775Z,19.75
2022-08-01T03:17:08.652Z,19.23
2022-08-01T03:19:49.649Z,26.70
2022-08-01T03:22:28.384Z,23.85
2022-08-01T03:25:03.978Z,20.98
2022-08-01T03:27:37.526Z,19.98
2022-08-01T03:30:12.659Z,24.23
2022-08-01T03:32:47.152Z,21.77
2022-08-01T03:38:16.225Z,25.00
2022-08-01T03:40:54.410Z,20.63
2022-08-01T03:43:40.755Z,23.23
2022-08-01T03:46:18.607Z,25.50
2022-08-01T03:48:55.776Z,25.17
2022-08-01T03:51:34.531Z,21.30
2022-08-01T03:54:08.909Z,25.10
2022-08-01T03:56:43.436Z,19.48
2022-08-01T03:59:26.889Z,25.33
2022-08-01T04:02:03.126Z,19.23
2022-08-01T04:04:37.570Z,22.38
2022-08-01T04:07:28.673Z,17.77
2022-08-01T04:10:02.073Z,21.80
2022-08-01T04:12:36.358Z,19.48
2022-08-01T04:15:11.052Z,19.10
2022-08-01T04:17:44.957Z,20.75
2022-08-01T04:20:19.365Z,17.88
2022-08-01T04:22:55.280Z,18.63
2022-08-01T04:25:34.802Z,18.10
2022-08-01T04:28:13.521Z,18.48
2022-08-01T04:30:48.521Z,19.23
2022-08-01T04:33:24.514Z,16.90
2022-08-01T04:36:03.672Z,15.85
2022-08-01T04:38:41.544Z,18.55
2022-08-01T04:41:17.355Z,16.80
2022-08-01T04:43:50.331Z,16.10
2022-08-01T04:46:23.944Z,17.90
2022-08-01T04:48:59.149Z,18.27
2022-08-01T04:51:32.957Z,22.92
2022-08-01T04:54:12.735Z,20.70
2022-08-01T04:59:45.070Z,18.75
2022-08-01T05:02:20.700Z,14.40
2022-08-01T05:04:55.294Z,21.65
2022-08-01T05:07:29.251Z,20.27
2022-08-01T05:10:05.707Z,20.45
2022-08-01T05:12:40.113Z,20.05
2022-08-01T05:15:15.612Z,19.77
2022-08-01T05:17:49.020Z,19.90
2022-08-01T05:20:22.515Z,23.40
2022-08-01T05:22:55.548Z,19.13
2022-08-01T05:25:57.438Z,22.23
2022-08-01T05:28:33.537Z,22.40
2022-08-01T05:31:09.099Z,22.33
2022-08-01T05:33:43.937Z,20.83
2022-08-01T05:36:20.422Z,20.80
2022-08-01T05:38:54.499Z,18.88
2022-08-01T05:41:30.798Z,17.25
2022-08-01T05:44:04.997Z,17.85
2022-08-01T05:46:40.527Z,14.80
2022-08-01T05:49:14.735Z,15.93
2022-08-01T05:51:48.542Z,16.58
2022-08-01T05:54:25.002Z,16.27
2022-08-01T05:57:06.305Z,18.10
2022-08-01T05:59:40.392Z,16.15
2022-08-01T06:02:13.962Z,22.35
2022-08-01T06:04:47.439Z,21.48
2022-08-01T06:07:21.655Z,26.35
2022-08-01T06:09:55.311Z,18.50
2022-08-01T06:12:38.907Z,20.85
2022-08-01T06:15:13.837Z,18.50
2022-08-01T06:17:47.649Z,17.50
2022-08-01T06:20:21.332Z,20.63
2022-08-01T06:22:55.213Z,20.00
2022-08-01T06:25:30.310Z,21.25
2022-08-01T06:28:06.187Z,19.23
2022-08-01T06:30:39.830Z,21.05
2022-08-01T06:33:13.516Z,20.02
2022-08-01T06:35:47.924Z,17.38
2022-08-01T06:41:09.548Z,13.43
2022-08-01T06:43:45.779Z,18.48
2022-08-01T06:46:19.995Z,12.77
2022-08-01T06:48:57.419Z,15.30
2022-08-01T06:51:33.291Z,15.95
2022-08-01T06:54:07.371Z,20.52
2022-08-01T06:56:41.318Z,15.63
2022-08-01T06:59:30.334Z,15.20
2022-08-01T07:02:04.815Z,15.85
2022-08-01T07:04:39.378Z,18.42
2022-08-01T07:07:13.715Z,15.77
2022-08-01T07:09:46.999Z,21.02
2022-08-01T07:12:20.749Z,17.02
2022-08-01T07:14:56.626Z,20.25
2022-08-01T07:17:30.268Z,17.77
2022-08-01T07:20:04.733Z,21.33
2022-08-01T07:22:39.203Z,23.05
2022-08-01T07:25:17.855Z,22.45
2022-08-01T07:27:51.338Z,23.15
2022-08-01T07:30:26.838Z,31.85
2022-08-01T07:33:00.801Z,24.23
2022-08-01T07:35:34.687Z,22.92
2022-08-01T07:38:12.580Z,21.33
2022-08-01T07:40:47.946Z,24.15
2022-08-01T07:43:21.597Z,22.45
2022-08-01T07:45:57.100Z,24.75
2022-08-01T07:48:31.237Z,25.20
2022-08-01T07:51:11.228Z,19.98
2022-08-01T07:53:45.414Z,25.77
2022-08-01T07:56:19.725Z,25.75
2022-08-01T07:58:53.638Z,23.73
2022-08-01T08:01:29.083Z,26.15
2022-08-01T08:04:04.414Z,23.05
2022-08-01T08:06:38.685Z,26.80
2022-08-01T08:09:12.540Z,24.52
2022-08-01T08:11:48.321Z,26.20
2022-08-01T08:17:13.713Z,30.63
2022-08-01T08:19:47.083Z,28.17
2022-08-01T08:22:20.524Z,25.48
2022-08-01T08:24:54.190Z,26.52
2022-08-01T08:27:35.444Z,25.00
2022-08-01T08:30:14.863Z,22.95
2022-08-01T08:32:50.732Z,29.55
2022-08-01T08:35:40.448Z,26.52
2022-08-01T08:38:17.523Z,29.85
2022-08-01T08:40:52.529Z,27.23
2022-08-01T08:43:27.184Z,25.08
2022-08-01T08:46:01.401Z,27.83
2022-08-01T08:48:37.806Z,25.73
2022-08-01T08:51:13.135Z,19.70
2022-08-01T08:53:48.620Z,23.50
2022-08-01T08:56:23.255Z,27.70
2022-08-01T08:58:57.602Z,29.42
2022-08-01T09:01:31.725Z,25.23
2022-08-01T09:04:08.601Z,25.52
2022-08-01T09:06:45.445Z,31.63
2022-08-01T09:09:18.873Z,33.63
2022-08-01T09:12:07.255Z,28.40
2022-08-01T09:14:52.187Z,29.05
2022-08-01T09:17:26.340Z,25.80
2022-08-01T09:20:02.435Z,29.88
2022-08-01T09:22:39.622Z,28.77
2022-08-01T09:25:14.783Z,30.20
2022-08-01T09:27:49.277Z,30.27
2022-08-01T09:30:26.238Z,32.15
2022-08-01T09:33:06.418Z,28.05
2022-08-01T09:36:01.484Z,36.08
2022-08-01T09:38:35.230Z,28.33
2022-08-01T09:41:09.757Z,31.23
2022-08-01T09:43:54.813Z,29.67
2022-08-01T09:46:29.067Z,33.00
2022-08-01T09:49:07.441Z,28.85
2022-08-01T09:52:00.113Z,27.13
2022-08-01T09:54:36.181Z,28.77
2022-08-01T09:57:18.478Z,28.30
2022-08-01T09:59:58.808Z,32.28
2022-08-01T10:02:36.655Z,34.33
2022-08-01T10:05:21.123Z,29.02
2022-08-01T10:08:08.229Z,35.25
2022-08-01T10:10:42.055Z,40.10
2022-08-01T10:13:20.214Z,40.58
2022-08-01T10:15:58.693Z,30.10
2022-08-01T10:18:33.130Z,29.40
2022-08-01T10:21:10.796Z,38.55
2022-08-01T10:23:47.496Z,31.58
2022-08-01T10:26:25.092Z,30.88
2022-08-01T10:29:02.309Z,27.95
2022-08-01T10:31:37.426Z,31.88
2022-08-01T10:34:12.197Z,28.42
2022-08-01T10:36:46.971Z,29.92
2022-08-01T10:39:24.156Z,26.85
2022-08-01T10:42:00.325Z,32.08
2022-08-01T10:44:35.349Z,32.13
2022-08-01T10:47:16.154Z,29.90
2022-08-01T10:49:58.644Z,28.77
2022-08-01T10:52:39.150Z,33.03
2022-08-01T10:55:15.596Z,27.98
2022-08-01T10:57:53.021Z,29.30
2022-08-01T11:00:27.124Z,28.77
2022-08-01T11:03:05.527Z,29.83
2022-08-01T11:05:42.896Z,27.30
2022-08-01T11:08:28.428Z,26.90
2022-08-01T11:11:09.565Z,24.77
2022-08-01T11:14:14.108Z,27.27
2022-08-01T11:16:49.981Z,25.13
2022-08-01T11:19:23.846Z,25.40
2022-08-01T11:22:08.183Z,29.02
2022-08-01T11:25:02.542Z,23.48
2022-08-01T11:27:39.167Z,30.10
2022-08-01T11:30:30.454Z,25.25
2022-08-01T11:33:10.744Z,23.40
2022-08-01T11:36:31.979Z,25.98
2022-08-01T11:39:24.536Z,30.73
2022-08-01T11:41:59.136Z,29.02
2022-08-01T11:44:52.108Z,26.40
2022-08-01T11:47:49.759Z,28.80
2022-08-01T11:50:41.357Z,27.70
2022-08-01T11:53:17.196Z,29.47
2022-08-01T11:55:57.213Z,24.90
2022-08-01T11:58:34.486Z,28.87
2022-08-01T12:01:24.657Z,24.13
2022-08-01T12:04:02.673Z,23.37
2022-08-01T12:06:36.848Z,24.93
2022-08-01T12:09:25.531Z,24.47
2022-08-01T12:11:59.505Z,22.87
2022-08-01T12:14:36.677Z,25.23
2022-08-01T12:17:12.798Z,25.20
2022-08-01T12:19:47.311Z,26.47
2022-08-01T12:22:21.293Z,22.55
2022-08-01T12:24:54.701Z,24.57
2022-08-01T12:27:33.056Z,28.33
2022-08-01T12:30:10.048Z,29.47
2022-08-01T12:32:47.112Z,23.00
2022-08-01T12:35:22.229Z,26.20
2022-08-01T12:37:57.921Z,30.60
2022-08-01T12:40:32.442Z,27.00
2022-08-01T12:43:07.403Z,34.20
2022-08-01T12:45:56.963Z,31.55
2022-08-01T12:48:37.442Z,31.33
2022-08-01T12:51:12.304Z,31.97
2022-08-01T12:53:45.619Z,26.95
2022-08-01T12:56:19.804Z,25.42
2022-08-01T12:58:55.979Z,31.40
2022-08-01T13:01:33.815Z,32.30
2022-08-01T13:04:10.110Z,32.47
2022-08-01T13:06:44.176Z,38.83
2022-08-01T13:09:20.470Z,35.03
2022-08-01T13:12:10.947Z,31.30
2022-08-01T13:14:47.148Z,37.53
2022-08-01T13:17:37.764Z,32.07
2022-08-01T13:20:14.654Z,32.10
2022-08-01T13:22:47.881Z,33.13
2022-08-01T13:25:26.893Z,40.97
2022-08-01T13:28:22.081Z,29.17
2022-08-01T13:31:00.965Z,33.53
2022-08-01T13:33:45.671Z,39.30
2022-08-01T13:36:31.804Z,37.10
2022-08-01T13:39:49.599Z,36.07
2022-08-01T13:42:25.873Z,32.87
2022-08-01T13:45:00.023Z,30.70
2022-08-01T13:47:33.394Z,29.73
2022-08-01T13:50:09.145Z,31.07
2022-08-01T13:52:46.304Z,27.00
2022-08-01T13:55:34.980Z,27.27
2022-08-01T13:58:10.421Z,30.97
2022-08-01T14:00:44.012Z,26.87
2022-08-01T14:03:19.236Z,28.50
2022-08-01T14:05:58.532Z,26.50
2022-08-01T14:09:17.317Z,27.43
2022-08-01T14:11:52.107Z,26.43
2022-08-01T14:14:26.204Z,31.80
2022-08-01T14:17:05.295Z,28.20
2022-08-01T14:19:42.268Z,29.40
2022-08-01T14:22:20.018Z,25.77
2022-08-01T14:25:00.821Z,25.83
2022-08-01T14:27:39.268Z,28.03
2022-08-01T14:30:14.806Z,25.30
2022-08-01T14:32:50.605Z,27.10
2022-08-01T14:35:24.953Z,28.10
2022-08-01T14:38:00.692Z,29.13
2022-08-01T14:40:37.994Z,28.53
2022-08-01T14:43:24.957Z,30.67
2022-08-01T14:46:02.102Z,27.67
2022-08-01T14:48:36.825Z,26.03
2022-08-01T14:51:11.754Z,26.60
2022-08-01T14:53:50.767Z,28.40
2022-08-01T14:56:27.103Z,27.10
2022-08-01T14:59:01.953Z,31.60
2022-08-01T15:01:37.129Z,31.23
2022-08-01T15:04:11.408Z,27.83
2022-08-01T15:06:47.803Z,25.27
2022-08-01T15:09:22.361Z,27.10
2022-08-01T15:11:58.322Z,29.10
2022-08-01T15:14:47.948Z,27.80
2022-08-01T15:17:23.389Z,31.47
2022-08-01T15:19:59.650Z,26.97
2022-08-01T15:22:34.216Z,31.30
2022-08-01T15:25:08.550Z,31.47
2022-08-01T15:27:45.496Z,30.13
2022-08-01T15:30:23.353Z,33.13
2022-08-01T15:33:01.649Z,31.00
2022-08-01T15:35:35.897Z,29.47
2022-08-01T15:38:10.941Z,33.83
2022-08-01T15:40:44.757Z,34.50
2022-08-01T15:43:21.060Z,31.93
2022-08-01T15:45:55.937Z,31.67
2022-08-01T15:48:29.902Z,34.20
2022-08-01T15:51:04.694Z,32.07
2022-08-01T15:53:40.037Z,33.73
2022-08-01T15:56:14.590Z,34.50
2022-08-01T15:58:50.418Z,33.47
2022-08-01T16:01:25.587Z,34.20
2022-08-01T16:04:00.496Z,37.00
2022-08-01T16:06:34.514Z,31.13
2022-08-01T16:09:18.347Z,33.63
2022-08-01T16:11:53.605Z,30.53
2022-08-01T16:14:29.478Z,32.77
2022-08-01T16:17:04.092Z,32.37
2022-08-01T16:19:38.654Z,32.93
2022-08-01T16:22:12.564Z,30.87
2022-08-01T16:24:47.608Z,30.60
2022-08-01T16:27:26.859Z,34.77
2022-08-01T16:30:03.457Z,39.97
2022-08-01T16:32:39.751Z,31.43
2022-08-01T16:35:22.034Z,34.50
2022-08-01T16:37:58.542Z,34.63
2022-08-01T16:40:46.253Z,30.80
2022-08-01T16:43:21.543Z,32.17
2022-08-01T16:45:58.365Z,31.73
2022-08-01T16:48:32.447Z,28.23
2022-08-01T16:51:06.357Z,32.20
2022-08-01T16:53:40.345Z,29.30
2022-08-01T16:56:13.806Z,27.17
2022-08-01T16:58:47.900Z,29.43
2022-08-01T17:02:00.135Z,30.27
2022-08-01T17:04:19.929Z,30.90
2022-08-01T17:06:54.066Z,34.17
2022-08-01T17:09:31.292Z,26.43
2022-08-01T17:12:05.108Z,28.60
2022-08-01T17:14:53.801Z,29.20
2022-08-01T17:17:29.672Z,24.57
2022-08-01T17:20:04.080Z,26.77
2022-08-01T17:22:38.220Z,24.80
2022-08-01T17:25:15.942Z,29.67
2022-08-01T17:28:04.681Z,28.30
2022-08-01T17:30:58.521Z,25.47
2022-08-01T17:33:44.644Z,30.20
2022-08-01T17:36:22.716Z,26.30
2022-08-01T17:39:01.116Z,24.87
2022-08-01T17:41:34.936Z,27.87
2022-08-01T17:44:09.298Z,28.30
2022-08-01T17:46:42.581Z,28.27
2022-08-01T17:49:33.380Z,27.87
2022-08-01T17:52:11.599Z,23.50
2022-08-01T17:54:45.707Z,22.73
2022-08-01T17:57:19.553Z,22.53
2022-08-01T17:59:54.092Z,26.00
2022-08-01T18:02:28.244Z,25.77
2022-08-01T18:08:06.263Z,19.43
2022-08-01T18:10:40.336Z,26.67
2022-08-01T18:13:17.818Z,23.20
2022-08-01T18:15:54.769Z,24.83
2022-08-01T18:18:33.600Z,29.87
2022-08-01T18:21:11.372Z,31.00
2022-08-01T18:23:51.405Z,30.47
2022-08-01T18:26:26.745Z,31.23
2022-08-01T18:29:00.003Z,32.53
2022-08-01T18:31:33.529Z,31.57
2022-08-01T18:34:07.517Z,27.97
2022-08-01T18:36:44.127Z,26.87
2022-08-01T18:39:18.057Z,32.27
2022-08-01T18:41:52.181Z,33.30
2022-08-01T18:44:26.638Z,34.80
2022-08-01T18:47:03.565Z,32.97
2022-08-01T18:49:37.337Z,34.63
2022-08-01T18:52:13.380Z,37.27
2022-08-01T18:54:47.117Z,40.07
2022-08-01T18:57:20.950Z,35.53
2022-08-01T19:00:03.598Z,36.00
2022-08-01T19:02:37.304Z,41.07
2022-08-01T19:05:11.613Z,34.47
2022-08-01T19:08:06.299Z,36.43
2022-08-01T19:10:43.392Z,33.10
2022-08-01T19:13:41.578Z,31.50
2022-08-01T19:16:19.351Z,35.33
2022-08-01T19:18:54.325Z,33.17
2022-08-01T19:21:28.427Z,34.57
2022-08-01T19:24:23.463Z,32.13
2022-08-01T19:26:58.640Z,34.03
2022-08-01T19:29:41.023Z,33.47
2022-08-01T19:32:14.471Z,33.70
2022-08-01T19:34:52.913Z,31.97
2022-08-01T19:37:27.479Z,31.27
2022-08-01T19:40:03.234Z,31.93
2022-08-01T19:42:36.774Z,34.57
2022-08-01T19:45:10.642Z,34.17
2022-08-01T19:47:51.839Z,34.30
2022-08-01T19:50:32.251Z,31.47
2022-08-01T19:53:08.029Z,34.03
2022-08-01T19:55:47.515Z,37.83
2022-08-01T19:58:27.313Z,30.27
2022-08-01T20:01:02.578Z,33.67
2022-08-01T20:03:39.193Z,30.23
2022-08-01T20:06:12.768Z,28.77
2022-08-01T20:08:54.874Z,29.97
2022-08-01T20:11:30.736Z,35.10
2022-08-01T20:14:04.768Z,30.20
2022-08-01T20:16:39.945Z,30.67
2022-08-01T20:19:13.620Z,28.80
2022-08-01T20:22:03.724Z,23.47
2022-08-01T20:24:46.295Z,25.67
2022-08-01T20:27:22.868Z,27.03
2022-08-01T20:29:57.568Z,27.20
2022-08-01T20:32:34.992Z,30.63
2022-08-01T20:35:09.653Z,31.00
2022-08-01T20:38:05.672Z,31.90
2022-08-01T20:40:41.391Z,30.53
2022-08-01T20:43:17.611Z,33.13
2022-08-01T20:45:51.646Z,29.07
2022-08-01T20:48:25.943Z,27.93
2022-08-01T20:51:15.815Z,29.67
2022-08-01T20:53:54.252Z,23.83
2022-08-01T20:56:49.985Z,20.30
2022-08-01T20:59:39.756Z,24.03
2022-08-01T21:02:40.408Z,32.17
2022-08-01T21:05:16.001Z,43.53
2022-08-01T21:07:55.595Z,46.97
2022-08-01T21:10:30.679Z,48.57
2022-08-01T21:13:07.371Z,39.53
2022-08-01T21:16:11.121Z,31.00
2022-08-01T21:18:58.072Z,26.33
2022-08-01T21:21:39.904Z,29.87
2022-08-01T21:24:21.369Z,25.20
2022-08-01T21:26:55.703Z,24.63
2022-08-01T21:29:33.050Z,24.10
2022-08-01T21:32:17.606Z,18.97
2022-08-01T21:34:51.676Z,21.90
2022-08-01T21:37:25.149Z,20.90
2022-08-01T21:39:58.998Z,20.40
2022-08-01T21:42:33.824Z,19.77
2022-08-01T21:45:08.520Z,16.77
2022-08-01T21:47:44.525Z,18.23
2022-08-01T21:50:18.483Z,23.27
2022-08-01T21:52:58.471Z,18.70
2022-08-01T21:55:48.530Z,17.30
2022-08-01T21:58:36.190Z,18.43
2022-08-01T22:01:15.237Z,19.27
2022-08-01T22:03:51.667Z,18.17
2022-08-01T22:06:27.419Z,20.90
2022-08-01T22:09:04.604Z,19.80
2022-08-01T22:11:58.874Z,16.30
2022-08-01T22:14:37.094Z,21.50
2022-08-01T22:17:11.554Z,21.33
2022-08-01T22:19:51.919Z,18.80
2022-08-01T22:22:50.936Z,25.17
2022-08-01T22:25:23.298Z,24.00
2022-08-01T22:28:09.957Z,20.83
2022-08-01T22:30:46.347Z,25.13
2022-08-01T22:33:20.726Z,23.87
2022-08-01T22:35:58.610Z,16.67
2022-08-01T22:38:32.727Z,16.63
2022-08-01T22:41:07.922Z,18.47
2022-08-01T22:43:48.677Z,19.90
2022-08-01T22:46:29.885Z,18.77
2022-08-01T22:49:11.386Z,18.37
2022-08-01T22:51:56.189Z,16.17
2022-08-01T22:54:39.170Z,19.73
2022-08-01T22:57:24.707Z,19.27
2022-08-01T23:00:04.123Z,18.07
2022-08-01T23:02:40.867Z,19.77
2022-08-01T23:08:18.301Z,18.83
2022-08-01T23:10:52.510Z,19.37
2022-08-01T23:13:26.533Z,19.07
2022-08-01T23:16:00.608Z,20.13
2022-08-01T23:18:44.696Z,18.30
2022-08-01T23:21:22.855Z,19.33
2022-08-01T23:24:00.835Z,18.90
2022-08-01T23:26:36.045Z,19.57
2022-08-01T23:29:09.573Z,20.03
2022-08-01T23:32:00.375Z,19.27
2022-08-01T23:34:37.305Z,17.53
2022-08-01T23:37:11.556Z,20.13
2022-08-01T23:39:47.896Z,17.87
2022-08-01T23:42:22.202Z,20.70
2022-08-01T23:44:57.130Z,18.73
2022-08-01T23:47:31.355Z,20.67
2022-08-01T23:50:05.193Z,16.23
2022-08-01T23:52:48.298Z,22.77
2022-08-01T23:55:36.973Z,17.83
2022-08-01T23:58:11.606Z,18.73
